createdAt,value
2022-12-08T00:00:05.067Z,99.50
2022-12-08T00:02:32.581Z,99.70
2022-12-08T00:05:18.561Z,99.70
2022-12-08T00:08:04.160Z,99.50
2022-12-08T00:13:18.108Z,99.90
2022-12-08T00:15:45.165Z,99.80
2022-12-08T00:18:12.185Z,99.80
2022-12-08T00:20:39.437Z,99.80
2022-12-08T00:23:06.291Z,99.70
2022-12-08T00:25:35.613Z,99.80
2022-12-08T00:28:02.557Z,99.70
2022-12-08T00:30:29.417Z,99.70
2022-12-08T00:32:56.148Z,99.70
2022-12-08T00:35:23.104Z,99.90
2022-12-08T00:37:50.012Z,99.90
2022-12-08T00:40:19.326Z,99.70
2022-12-08T00:42:46.242Z,99.70
2022-12-08T00:45:13.972Z,99.70
2022-12-08T00:47:40.754Z,99.70
2022-12-08T00:50:07.712Z,99.70
2022-12-08T00:52:34.531Z,99.70
2022-12-08T00:55:01.426Z,99.70
2022-12-08T00:57:31.961Z,99.90
2022-12-08T00:59:58.798Z,99.70
2022-12-08T01:02:25.965Z,99.70
2022-12-08T01:04:53.821Z,99.90
2022-12-08T01:07:20.827Z,99.90
2022-12-08T01:09:50.430Z,99.70
2022-12-08T01:12:17.267Z,99.70
2022-12-08T01:14:44.056Z,99.70
2022-12-08T01:17:47.977Z,99.70
2022-12-08T01:20:11.198Z,99.70
2022-12-08T01:22:38.040Z,99.80
2022-12-08T01:25:11.643Z,99.80
2022-12-08T01:27:38.481Z,99.80
2022-12-08T01:30:05.814Z,99.70
2022-12-08T01:32:32.771Z,99.80
2022-12-08T01:34:59.828Z,99.90
2022-12-08T01:37:29.057Z,99.80
2022-12-08T01:39:55.962Z,99.80
2022-12-08T01:42:22.962Z,99.90
2022-12-08T01:44:52.144Z,99.80
2022-12-08T01:47:19.091Z,99.90
2022-12-08T01:49:49.176Z,99.90
2022-12-08T01:52:48.609Z,99.80
2022-12-08T01:55:42.499Z,99.80
2022-12-08T01:58:23.783Z,99.80
2022-12-08T02:00:50.682Z,99.80
2022-12-08T02:03:23.108Z,99.80
2022-12-08T02:05:49.994Z,99.80
2022-12-08T02:08:16.922Z,99.90
2022-12-08T02:10:43.959Z,99.90
2022-12-08T02:13:13.166Z,99.80
2022-12-08T02:15:43.096Z,99.80
2022-12-08T02:18:12.910Z,99.90
2022-12-08T02:20:51.990Z,99.80
2022-12-08T02:23:41.390Z,99.80
2022-12-08T02:26:26.633Z,99.80
2022-12-08T02:29:08.921Z,99.90
2022-12-08T02:31:48.695Z,99.80
2022-12-08T02:34:27.747Z,99.90
2022-12-08T02:36:59.738Z,99.90
2022-12-08T02:39:46.050Z,99.80
2022-12-08T02:42:28.654Z,99.80
2022-12-08T02:44:56.420Z,99.80
2022-12-08T02:47:23.446Z,99.80
2022-12-08T02:49:50.300Z,99.90
2022-12-08T02:52:16.985Z,99.90
2022-12-08T02:54:45.431Z,99.80
2022-12-08T02:57:31.215Z,99.90
2022-12-08T02:59:57.891Z,99.80
2022-12-08T03:02:27.715Z,99.90
2022-12-08T03:04:59.258Z,99.90
2022-12-08T03:07:29.276Z,99.90
2022-12-08T03:10:19.658Z,99.90
2022-12-08T03:12:53.939Z,99.90
2022-12-08T03:15:20.815Z,99.80
2022-12-08T03:17:51.563Z,99.90
2022-12-08T03:20:19.936Z,99.90
2022-12-08T03:22:46.851Z,99.80
2022-12-08T03:25:13.836Z,99.90
2022-12-08T03:27:40.847Z,99.90
2022-12-08T03:30:08.047Z,99.90
2022-12-08T03:32:34.761Z,99.80
2022-12-08T03:35:02.236Z,99.90
2022-12-08T03:37:29.074Z,99.90
2022-12-08T03:39:56.283Z,99.80
2022-12-08T03:42:23.269Z,99.80
2022-12-08T03:44:49.990Z,99.90
2022-12-08T03:47:16.703Z,99.90
2022-12-08T03:49:43.469Z,99.90
2022-12-08T03:52:10.236Z,99.90
2022-12-08T03:54:37.140Z,99.90
2022-12-08T03:57:04.166Z,99.90
2022-12-08T03:59:31.141Z,99.90
2022-12-08T04:01:57.949Z,99.90
2022-12-08T04:04:24.822Z,99.90
2022-12-08T04:06:51.708Z,99.90
2022-12-08T04:09:18.434Z,99.90
2022-12-08T04:11:45.242Z,99.90
2022-12-08T04:14:12.026Z,99.90
2022-12-08T04:16:38.832Z,99.90
2022-12-08T04:19:05.687Z,99.90
2022-12-08T04:21:32.626Z,99.90
2022-12-08T04:24:01.265Z,99.90
2022-12-08T04:26:28.345Z,99.90
2022-12-08T04:28:55.086Z,99.90
2022-12-08T04:31:22.073Z,99.90
2022-12-08T04:33:49.055Z,99.90
2022-12-08T04:36:15.926Z,99.90
2022-12-08T04:38:42.709Z,99.90
2022-12-08T04:41:09.489Z,99.90
2022-12-08T04:43:37.017Z,99.90
2022-12-08T04:46:06.298Z,99.90
2022-12-08T04:48:33.292Z,99.90
2022-12-08T04:51:00.086Z,99.90
2022-12-08T04:53:27.292Z,99.90
2022-12-08T04:55:54.283Z,99.90
2022-12-08T04:58:23.404Z,99.90
2022-12-08T05:00:50.486Z,99.90
2022-12-08T05:03:17.510Z,99.90
2022-12-08T05:05:44.700Z,99.90
2022-12-08T05:08:11.514Z,99.90
2022-12-08T05:10:41.091Z,99.90
2022-12-08T05:13:10.456Z,99.90
2022-12-08T05:15:37.224Z,99.90
2022-12-08T05:18:12.471Z,99.90
2022-12-08T05:20:39.329Z,99.80
2022-12-08T05:23:06.274Z,99.90
2022-12-08T05:25:33.167Z,99.90
2022-12-08T05:28:24.697Z,99.90
2022-12-08T05:30:46.905Z,99.90
2022-12-08T05:33:13.810Z,99.90
2022-12-08T05:35:40.837Z,99.90
2022-12-08T05:38:07.665Z,99.90
2022-12-08T05:40:34.474Z,99.90
2022-12-08T05:43:01.342Z,99.90
2022-12-08T05:45:28.326Z,99.90
2022-12-08T05:47:55.162Z,99.90
2022-12-08T05:50:30.575Z,99.90
2022-12-08T05:52:57.529Z,99.90
2022-12-08T05:55:24.435Z,99.90
2022-12-08T05:57:51.408Z,99.90
2022-12-08T06:00:18.499Z,99.90
2022-12-08T06:02:45.608Z,99.90
2022-12-08T06:05:12.516Z,99.90
2022-12-08T06:07:42.635Z,99.80
2022-12-08T06:10:09.715Z,99.90
2022-12-08T06:12:36.713Z,99.90
2022-12-08T06:15:03.749Z,99.90
2022-12-08T06:17:30.526Z,99.90
2022-12-08T06:20:06.988Z,99.90
2022-12-08T06:22:43.089Z,99.90
2022-12-08T06:32:04.004Z,99.90
2022-12-08T06:35:04.119Z,99.90
2022-12-08T06:43:58.152Z,99.90
2022-12-08T06:49:14.849Z,99.90
2022-12-08T06:51:48.541Z,99.90
2022-12-08T06:54:22.348Z,99.90
2022-12-08T06:56:53.411Z,99.90
2022-12-08T06:59:34.080Z,99.80
2022-12-08T07:02:01.285Z,99.90
2022-12-08T07:07:22.161Z,99.90
2022-12-08T07:09:55.771Z,99.90
2022-12-08T07:12:25.444Z,99.90
2022-12-08T07:14:58.163Z,99.90
2022-12-08T07:25:40.584Z,99.90
2022-12-08T07:28:15.130Z,99.90
2022-12-08T07:30:48.586Z,99.90
2022-12-08T07:33:18.625Z,99.90
2022-12-08T07:35:57.985Z,99.90
2022-12-08T07:38:25.622Z,99.90
2022-12-08T07:40:52.705Z,99.90
2022-12-08T07:46:14.958Z,99.90
2022-12-08T07:48:41.992Z,99.90
2022-12-08T07:51:08.808Z,99.90
2022-12-08T07:53:35.791Z,99.90
2022-12-08T07:56:06.011Z,99.90
2022-12-08T07:58:38.266Z,99.90
2022-12-08T08:01:09.992Z,99.90
2022-12-08T08:03:39.494Z,99.90
2022-12-08T08:06:06.732Z,99.90
2022-12-08T08:08:33.898Z,99.90
2022-12-08T08:11:15.805Z,99.90
2022-12-08T08:16:30.032Z,99.90
2022-12-08T08:19:00.309Z,99.90
2022-12-08T08:21:45.049Z,99.90
2022-12-08T08:24:14.707Z,99.90
2022-12-08T08:26:55.515Z,99.90
2022-12-08T08:29:22.352Z,99.90
2022-12-08T08:31:49.174Z,99.90
2022-12-08T08:34:16.061Z,99.90
2022-12-08T08:36:42.899Z,99.90
2022-12-08T08:39:09.858Z,99.90
2022-12-08T08:41:36.717Z,99.90
2022-12-08T08:44:04.304Z,99.90
2022-12-08T08:46:31.182Z,99.90
2022-12-08T08:48:58.265Z,99.90
2022-12-08T08:51:25.267Z,99.90
2022-12-08T08:53:51.961Z,99.90
2022-12-08T08:56:21.905Z,99.90
2022-12-08T08:58:49.255Z,99.90
2022-12-08T09:01:17.282Z,99.90
2022-12-08T09:03:44.583Z,99.90
2022-12-08T09:06:11.850Z,99.90
2022-12-08T09:08:38.730Z,99.90
2022-12-08T09:11:05.603Z,99.90
2022-12-08T09:13:32.479Z,99.90
2022-12-08T09:16:00.920Z,99.90
2022-12-08T09:18:27.783Z,99.90
2022-12-08T09:20:54.612Z,99.90
2022-12-08T09:23:21.450Z,99.90
2022-12-08T09:25:48.291Z,99.90
2022-12-08T09:28:15.165Z,99.90
2022-12-08T09:30:41.979Z,99.90
2022-12-08T09:33:08.800Z,99.90
2022-12-08T09:35:35.615Z,99.90
2022-12-08T09:38:02.414Z,99.90
2022-12-08T09:40:29.408Z,99.90
2022-12-08T09:43:03.516Z,99.90
2022-12-08T09:45:30.668Z,99.90
2022-12-08T09:47:57.396Z,99.90
2022-12-08T09:50:30.852Z,99.90
2022-12-08T09:53:06.071Z,99.90
2022-12-08T09:55:46.741Z,99.90
2022-12-08T09:58:16.246Z,99.90
2022-12-08T10:00:43.076Z,99.90
2022-12-08T10:03:16.384Z,99.90
2022-12-08T10:05:51.425Z,99.90
2022-12-08T10:08:23.599Z,99.90
2022-12-08T10:10:54.654Z,99.90
2022-12-08T10:13:39.296Z,99.90
2022-12-08T10:16:21.179Z,99.90
2022-12-08T10:18:58.069Z,99.90
2022-12-08T10:21:26.157Z,99.90
2022-12-08T10:23:54.200Z,99.90
2022-12-08T10:26:21.574Z,99.90
2022-12-08T10:28:48.927Z,99.90
2022-12-08T10:31:19.887Z,99.90
2022-12-08T10:33:47.357Z,99.90
2022-12-08T10:36:14.163Z,99.90
2022-12-08T10:38:42.439Z,99.90
2022-12-08T10:41:09.410Z,99.90
2022-12-08T10:43:55.885Z,99.90
2022-12-08T10:46:23.241Z,99.90
2022-12-08T10:48:54.394Z,99.90
2022-12-08T10:51:52.349Z,99.90
2022-12-08T10:54:37.515Z,99.90
2022-12-08T10:57:04.418Z,99.90
2022-12-08T10:59:33.785Z,99.90
2022-12-08T11:02:00.886Z,99.90
2022-12-08T11:04:37.387Z,99.90
2022-12-08T11:07:08.325Z,99.90
2022-12-08T11:09:35.103Z,99.90
2022-12-08T11:12:08.293Z,99.90
2022-12-08T11:14:35.238Z,99.90
2022-12-08T11:17:08.823Z,99.90
2022-12-08T11:19:39.398Z,99.90
2022-12-08T11:22:21.447Z,99.90
2022-12-08T11:24:56.691Z,99.90
2022-12-08T11:27:23.532Z,99.90
2022-12-08T11:29:50.413Z,99.90
2022-12-08T11:32:17.421Z,99.90
2022-12-08T11:34:46.642Z,99.90
2022-12-08T11:37:35.035Z,99.90
2022-12-08T11:40:05.202Z,99.90
2022-12-08T11:42:34.195Z,99.90
2022-12-08T11:45:05.461Z,99.90
2022-12-08T11:47:35.319Z,99.90
2022-12-08T11:50:18.323Z,99.90
2022-12-08T11:52:47.599Z,99.90
2022-12-08T11:55:26.694Z,99.90
2022-12-08T11:57:54.582Z,99.90
2022-12-08T12:00:21.687Z,99.90
2022-12-08T12:02:52.434Z,99.90
2022-12-08T12:05:56.651Z,99.90
2022-12-08T12:08:32.496Z,99.90
2022-12-08T12:11:02.654Z,99.90
2022-12-08T12:13:49.315Z,99.90
2022-12-08T12:16:25.793Z,99.90
2022-12-08T12:18:53.911Z,99.90
2022-12-08T12:21:28.517Z,99.90
2022-12-08T12:24:00.077Z,99.90
2022-12-08T12:26:30.920Z,99.90
2022-12-08T12:29:06.179Z,99.90
2022-12-08T12:31:33.473Z,99.90
2022-12-08T12:34:10.453Z,99.90
2022-12-08T12:36:55.473Z,99.90
2022-12-08T12:39:24.216Z,99.90
2022-12-08T12:41:55.205Z,99.90
2022-12-08T12:44:24.177Z,99.90
2022-12-08T12:46:53.411Z,99.90
2022-12-08T12:49:40.773Z,99.90
2022-12-08T12:52:10.745Z,99.90
2022-12-08T12:54:37.487Z,99.90
2022-12-08T12:57:10.525Z,99.90
2022-12-08T12:59:51.755Z,99.90
2022-12-08T13:02:26.685Z,99.90
2022-12-08T13:05:02.353Z,99.90
2022-12-08T13:07:30.383Z,99.90
2022-12-08T13:09:59.156Z,99.90
2022-12-08T13:12:28.409Z,99.90
2022-12-08T13:14:56.882Z,99.90
2022-12-08T13:17:35.440Z,99.90
2022-12-08T13:20:02.753Z,99.90
2022-12-08T13:22:48.641Z,99.90
2022-12-08T13:25:36.938Z,99.90
2022-12-08T13:28:21.211Z,99.90
2022-12-08T13:30:58.383Z,99.90
2022-12-08T13:33:32.243Z,99.90
2022-12-08T13:36:07.847Z,99.90
2022-12-08T13:38:36.325Z,99.90
2022-12-08T13:41:03.878Z,99.90
2022-12-08T13:44:20.110Z,99.90
2022-12-08T13:56:37.245Z,99.90
2022-12-08T13:58:07.598Z,99.80
2022-12-08T14:00:34.502Z,99.70
2022-12-08T14:03:01.367Z,99.70
2022-12-08T14:05:55.145Z,99.80
2022-12-08T14:08:50.359Z,99.80
2022-12-08T14:11:07.658Z,99.70
2022-12-08T14:13:34.783Z,99.90
2022-12-08T14:16:02.536Z,99.80
2022-12-08T14:18:30.380Z,99.80
2022-12-08T14:21:21.984Z,99.80
2022-12-08T14:23:57.034Z,99.50
2022-12-08T14:26:23.907Z,99.70
2022-12-08T14:28:50.740Z,99.70
2022-12-08T14:31:17.898Z,99.70
2022-12-08T14:33:54.795Z,99.70
2022-12-08T14:36:23.348Z,99.80
2022-12-08T14:38:50.360Z,99.60
2022-12-08T14:41:17.423Z,99.70
2022-12-08T14:43:44.325Z,99.90
2022-12-08T14:46:21.357Z,99.70
2022-12-08T14:48:48.510Z,99.60
2022-12-08T14:51:21.692Z,99.60
2022-12-08T14:53:56.122Z,99.50
2022-12-08T14:56:27.486Z,99.60
2022-12-08T14:59:06.796Z,99.40
2022-12-08T15:01:33.864Z,99.50
2022-12-08T15:04:08.774Z,99.90
2022-12-08T15:06:37.760Z,99.40
2022-12-08T15:09:15.504Z,99.40
2022-12-08T15:11:42.758Z,99.30
2022-12-08T15:14:26.638Z,99.60
2022-12-08T15:17:03.409Z,99.40
2022-12-08T15:19:30.977Z,99.60
2022-12-08T15:22:16.606Z,99.40
2022-12-08T15:24:43.686Z,99.30
2022-12-08T15:27:10.950Z,99.50
2022-12-08T15:29:37.844Z,99.30
2022-12-08T15:32:05.666Z,99.30
2022-12-08T15:34:32.640Z,99.30
2022-12-08T15:36:59.472Z,99.40
2022-12-08T15:39:33.364Z,99.40
2022-12-08T15:42:00.166Z,99.30
2022-12-08T15:44:26.985Z,99.30
2022-12-08T15:46:53.872Z,99.50
2022-12-08T15:49:21.968Z,99.40
2022-12-08T15:51:48.952Z,99.30
2022-12-08T15:54:16.906Z,99.40
2022-12-08T15:57:10.863Z,99.20
2022-12-08T15:59:35.044Z,99.20
2022-12-08T16:02:03.048Z,99.30
2022-12-08T16:07:23.720Z,99.20
2022-12-08T16:09:50.853Z,99.10
2022-12-08T16:18:14.794Z,99.30
2022-12-08T16:23:42.465Z,99.30
2022-12-08T16:28:58.618Z,99.40
2022-12-08T16:31:25.859Z,99.40
2022-12-08T16:33:52.779Z,99.60
2022-12-08T16:36:19.660Z,99.40
2022-12-08T16:38:46.495Z,99.40
2022-12-08T16:41:33.189Z,99.40
2022-12-08T16:44:03.578Z,99.30
2022-12-08T16:46:30.910Z,99.30
2022-12-08T16:48:59.289Z,99.30
2022-12-08T16:51:27.343Z,99.30
2022-12-08T16:53:55.628Z,99.50
2022-12-08T16:56:27.519Z,99.30
2022-12-08T16:58:57.401Z,99.40
2022-12-08T17:01:24.587Z,99.50
2022-12-08T17:04:07.428Z,99.40
2022-12-08T17:06:38.483Z,99.60
2022-12-08T17:09:05.260Z,99.20
2022-12-08T17:11:36.216Z,99.40
2022-12-08T17:14:09.355Z,99.40
2022-12-08T17:16:36.768Z,99.40
2022-12-08T17:19:03.973Z,99.50
2022-12-08T17:21:36.021Z,99.30
2022-12-08T17:24:02.927Z,99.40
2022-12-08T17:26:30.147Z,99.40
2022-12-08T17:29:01.410Z,99.50
2022-12-08T17:31:30.154Z,99.50
2022-12-08T17:34:01.472Z,99.50
2022-12-08T17:36:28.665Z,99.30
2022-12-08T17:41:37.818Z,99.60
2022-12-08T17:44:09.798Z,99.50
2022-12-08T17:46:41.600Z,99.50
2022-12-08T17:49:10.525Z,99.60
2022-12-08T17:51:38.080Z,99.40
2022-12-08T17:54:07.135Z,99.30
2022-12-08T17:56:34.211Z,99.40
2022-12-08T17:59:02.634Z,99.30
2022-12-08T18:01:29.511Z,99.30
2022-12-08T18:03:58.097Z,99.30
2022-12-08T18:06:29.637Z,99.60
2022-12-08T18:08:58.218Z,99.40
2022-12-08T18:11:24.970Z,99.30
2022-12-08T18:13:51.882Z,99.40
2022-12-08T18:16:19.419Z,99.50
2022-12-08T18:18:46.120Z,99.50
2022-12-08T18:21:12.934Z,99.70
2022-12-08T18:23:40.251Z,99.30
2022-12-08T18:26:07.530Z,99.60
2022-12-08T18:28:34.490Z,99.40
2022-12-08T18:31:01.653Z,99.30
2022-12-08T18:33:28.646Z,99.30
2022-12-08T18:35:55.591Z,99.30
2022-12-08T18:38:30.310Z,99.40
2022-12-08T18:41:03.600Z,99.40
2022-12-08T18:43:32.391Z,99.40
2022-12-08T18:46:02.861Z,99.30
2022-12-08T18:48:29.917Z,99.30
2022-12-08T18:50:59.242Z,99.40
2022-12-08T18:53:26.125Z,99.70
2022-12-08T18:55:53.056Z,99.60
2022-12-08T18:58:19.987Z,99.50
2022-12-08T19:00:46.921Z,99.50
2022-12-08T19:03:13.824Z,99.70
2022-12-08T19:05:40.769Z,99.50
2022-12-08T19:08:07.513Z,99.50
2022-12-08T19:10:35.592Z,99.50
2022-12-08T19:13:02.392Z,99.40
2022-12-08T19:15:29.351Z,99.40
2022-12-08T19:17:56.189Z,99.20
2022-12-08T19:20:23.045Z,99.40
2022-12-08T19:22:49.855Z,99.40
2022-12-08T19:25:16.735Z,99.40
2022-12-08T19:27:45.844Z,99.60
2022-12-08T19:30:12.892Z,99.50
2022-12-08T19:32:39.657Z,99.50
2022-12-08T19:35:07.611Z,99.50
2022-12-08T19:37:34.726Z,99.50
2022-12-08T19:40:20.269Z,99.50
2022-12-08T19:43:05.777Z,99.40
2022-12-08T19:45:32.691Z,99.50
2022-12-08T19:47:59.504Z,99.50
2022-12-08T19:50:38.816Z,99.40
2022-12-08T19:53:14.940Z,99.70
2022-12-08T19:55:42.155Z,99.40
2022-12-08T19:58:12.244Z,99.60
2022-12-08T20:00:39.218Z,99.40
2022-12-08T20:03:06.329Z,99.40
2022-12-08T20:05:33.674Z,99.40
2022-12-08T20:08:00.607Z,99.40
2022-12-08T20:10:35.445Z,99.50
2022-12-08T20:13:21.005Z,99.50
2022-12-08T20:15:51.033Z,99.50
2022-12-08T20:18:18.009Z,99.60
2022-12-08T20:20:45.554Z,99.60
2022-12-08T20:23:14.892Z,99.80
2022-12-08T20:25:42.121Z,99.70
2022-12-08T20:28:09.026Z,99.80
2022-12-08T20:30:37.990Z,99.60
2022-12-08T20:33:04.809Z,99.60
2022-12-08T20:35:34.669Z,99.60
2022-12-08T20:38:01.430Z,99.60
2022-12-08T20:40:28.226Z,99.50
2022-12-08T20:42:55.085Z,99.50
2022-12-08T20:45:21.980Z,99.50
2022-12-08T20:47:49.207Z,99.70
2022-12-08T20:50:16.034Z,99.60
2022-12-08T20:52:42.828Z,99.60
2022-12-08T20:55:09.949Z,99.50
2022-12-08T20:57:37.031Z,99.60
2022-12-08T21:00:04.980Z,99.70
2022-12-08T21:02:32.416Z,99.50
2022-12-08T21:04:59.421Z,99.50
2022-12-08T21:07:26.626Z,99.80
2022-12-08T21:09:55.094Z,99.50
2022-12-08T21:12:22.187Z,99.50
2022-12-08T21:14:49.112Z,99.70
2022-12-08T21:17:16.091Z,99.80
2022-12-08T21:19:43.136Z,99.90
2022-12-08T21:22:10.174Z,99.90
2022-12-08T21:24:37.558Z,99.70
2022-12-08T21:27:04.559Z,99.80
2022-12-08T21:29:31.904Z,99.80
2022-12-08T21:32:02.623Z,99.80
2022-12-08T21:34:43.067Z,99.70
2022-12-08T21:37:13.644Z,99.90
2022-12-08T21:39:45.990Z,99.80
2022-12-08T21:42:39.320Z,99.80
2022-12-08T21:45:17.801Z,99.80
2022-12-08T21:47:47.245Z,99.70
2022-12-08T21:50:20.270Z,99.70
2022-12-08T21:52:50.395Z,99.80
2022-12-08T21:55:43.445Z,99.90
2022-12-08T21:58:19.453Z,99.90
2022-12-08T22:00:52.638Z,99.90
2022-12-08T22:03:36.430Z,99.90
2022-12-08T22:06:13.850Z,99.80
2022-12-08T22:08:41.172Z,99.70
2022-12-08T22:11:44.485Z,99.80
2022-12-08T22:14:22.467Z,99.80
2022-12-08T22:16:50.286Z,99.80
2022-12-08T22:19:35.855Z,99.70
2022-12-08T22:22:03.474Z,99.80
2022-12-08T22:24:30.876Z,99.70
2022-12-08T22:27:06.712Z,99.70
2022-12-08T22:29:43.384Z,99.70
2022-12-08T22:32:14.545Z,99.70
2022-12-08T22:34:48.453Z,99.70
2022-12-08T22:37:18.255Z,99.60
2022-12-08T22:43:04.045Z,99.70
2022-12-08T22:45:49.238Z,99.80
2022-12-08T22:48:19.687Z,99.70
2022-12-08T22:50:59.919Z,99.90
2022-12-08T22:53:28.111Z,99.90
2022-12-08T22:56:04.337Z,99.90
2022-12-08T22:58:40.351Z,99.70
2022-12-08T23:01:35.119Z,99.90
2022-12-08T23:04:05.262Z,99.90
2022-12-08T23:06:35.779Z,99.90
2022-12-08T23:09:02.712Z,99.80
2022-12-08T23:11:37.550Z,99.90
2022-12-08T23:14:17.776Z,99.80
2022-12-08T23:16:44.699Z,99.90
2022-12-08T23:19:19.545Z,99.80
2022-12-08T23:21:46.570Z,99.90
2022-12-08T23:24:15.430Z,99.90
2022-12-08T23:26:43.507Z,99.90
2022-12-08T23:29:10.443Z,99.90
2022-12-08T23:31:38.008Z,99.90
2022-12-08T23:34:06.958Z,99.90
2022-12-08T23:36:33.919Z,99.90
2022-12-08T23:39:01.365Z,99.90
2022-12-08T23:41:28.590Z,99.90
2022-12-08T23:43:55.413Z,99.90
2022-12-08T23:46:25.483Z,99.90
2022-12-08T23:48:52.497Z,99.90
2022-12-08T23:51:19.605Z,99.90
2022-12-08T23:53:46.867Z,99.90
2022-12-08T23:56:15.560Z,99.90
2022-12-08T23:58:42.700Z,99.90
